createdAt,value
2023-05-04T00:02:50.642Z,8.40
2023-05-04T00:08:18.421Z,8.30
2023-05-04T00:13:46.309Z,8.20
2023-05-04T00:19:14.238Z,8.10
2023-05-04T00:24:44.102Z,8.00
2023-05-04T00:30:16.089Z,7.90
2023-05-04T00:35:44.293Z,7.80
2023-05-04T00:41:13.401Z,7.80
2023-05-04T00:46:43.103Z,7.70
2023-05-04T00:52:14.825Z,7.60
2023-05-04T00:57:48.933Z,7.60
2023-05-04T01:03:17.382Z,7.50
2023-05-04T01:09:06.799Z,7.50
2023-05-04T01:14:38.091Z,7.40
2023-05-04T01:20:07.445Z,7.40
2023-05-04T01:25:52.210Z,7.30
2023-05-04T01:31:26.902Z,7.20
2023-05-04T01:36:56.094Z,7.20
2023-05-04T01:42:27.186Z,7.10
2023-05-04T01:47:55.605Z,7.10
2023-05-04T01:53:23.876Z,7.00
2023-05-04T01:58:51.595Z,7.00
2023-05-04T02:04:19.727Z,6.90
2023-05-04T02:09:49.097Z,6.90
2023-05-04T02:15:19.414Z,6.90
2023-05-04T02:20:49.246Z,6.80
2023-05-04T02:26:24.608Z,6.80
2023-05-04T02:31:53.419Z,6.70
2023-05-04T02:37:21.415Z,6.60
2023-05-04T02:42:50.494Z,6.60
2023-05-04T02:48:19.410Z,6.50
2023-05-04T02:53:47.362Z,6.50
2023-05-04T02:59:17.645Z,6.50
2023-05-04T03:04:45.677Z,6.40
2023-05-04T03:10:14.878Z,6.40
2023-05-04T03:15:43.125Z,6.30
2023-05-04T03:21:11.048Z,6.20
2023-05-04T03:26:42.460Z,6.20
2023-05-04T03:32:10.808Z,6.10
2023-05-04T03:37:38.926Z,6.00
2023-05-04T03:43:06.896Z,6.00
2023-05-04T03:48:35.314Z,6.00
2023-05-04T03:54:12.635Z,6.00
2023-05-04T04:00:08.803Z,5.90
2023-05-04T04:06:16.892Z,5.90
2023-05-04T04:12:09.043Z,5.90
2023-05-04T04:17:45.690Z,5.90
2023-05-04T04:23:34.525Z,5.90
2023-05-04T04:35:22.666Z,6.20
2023-05-04T04:41:36.705Z,6.30
2023-05-04T04:47:14.634Z,6.50
2023-05-04T04:52:50.510Z,6.70
2023-05-04T04:58:22.222Z,6.90
2023-05-04T05:04:00.932Z,7.00
2023-05-04T05:09:29.854Z,7.20
2023-05-04T05:15:00.835Z,7.40
2023-05-04T05:20:34.645Z,7.70
2023-05-04T05:26:06.426Z,7.90
2023-05-04T05:31:34.657Z,8.20
2023-05-04T05:37:15.517Z,8.40
2023-05-04T05:42:43.691Z,8.70
2023-05-04T05:48:24.368Z,9.00
2023-05-04T05:53:54.621Z,9.30
2023-05-04T05:59:25.362Z,9.50
2023-05-04T06:04:53.479Z,9.80
2023-05-04T06:10:24.881Z,10.10
2023-05-04T06:15:54.365Z,10.30
2023-05-04T06:21:22.697Z,10.50
2023-05-04T06:26:53.331Z,10.90
2023-05-04T06:32:25.964Z,11.10
2023-05-04T06:50:26.954Z,11.90
2023-05-04T06:56:24.515Z,12.20
2023-05-04T07:01:58.326Z,12.40
2023-05-04T07:07:26.522Z,12.60
2023-05-04T07:12:58.013Z,12.90
2023-05-04T07:18:33.789Z,13.10
2023-05-04T07:24:33.731Z,13.40
2023-05-04T07:30:03.361Z,13.70
2023-05-04T07:35:31.843Z,14.10
2023-05-04T07:46:45.619Z,14.60
2023-05-04T07:52:14.566Z,14.80
2023-05-04T07:58:00.561Z,14.90
2023-05-04T08:03:45.610Z,15.20
2023-05-04T08:09:20.197Z,15.50
2023-05-04T08:14:49.568Z,15.50
2023-05-04T08:20:32.128Z,15.80
2023-05-04T08:26:07.349Z,15.90
2023-05-04T08:31:38.618Z,16.00
2023-05-04T08:37:06.733Z,16.20
2023-05-04T08:42:34.979Z,16.40
2023-05-04T08:48:25.765Z,16.60
2023-05-04T08:54:00.912Z,16.90
2023-05-04T08:59:44.136Z,17.10
2023-05-04T09:05:15.509Z,17.20
2023-05-04T09:10:57.589Z,17.50
2023-05-04T09:16:37.919Z,17.80
2023-05-04T09:22:20.076Z,17.90
2023-05-04T09:28:00.683Z,18.20
2023-05-04T09:33:29.383Z,18.20
2023-05-04T09:39:18.569Z,18.30
2023-05-04T09:45:05.057Z,18.30
2023-05-04T09:50:36.884Z,18.50
2023-05-04T09:56:22.183Z,18.30
2023-05-04T10:01:50.912Z,18.40
2023-05-04T10:07:19.374Z,18.50
2023-05-04T10:12:47.280Z,18.50
2023-05-04T10:18:48.437Z,18.80
2023-05-04T10:24:34.225Z,19.00
2023-05-04T10:30:03.504Z,19.30
2023-05-04T10:35:34.869Z,19.40
2023-05-04T10:41:24.473Z,19.70
2023-05-04T10:47:10.286Z,20.00
2023-05-04T10:52:57.169Z,20.30
2023-05-04T10:58:29.952Z,20.50
2023-05-04T11:03:58.671Z,20.60
2023-05-04T11:09:36.468Z,20.60
2023-05-04T11:15:10.037Z,20.90
2023-05-04T11:20:38.621Z,21.00
2023-05-04T11:26:10.735Z,21.00
2023-05-04T11:31:48.763Z,21.00
2023-05-04T11:37:17.593Z,20.90
2023-05-04T11:42:46.749Z,20.60
2023-05-04T11:48:21.064Z,20.60
2023-05-04T11:53:53.708Z,20.50
2023-05-04T11:59:28.890Z,20.40
2023-05-04T12:04:58.267Z,20.50
2023-05-04T12:10:35.512Z,20.70
2023-05-04T12:16:11.347Z,20.60
2023-05-04T12:21:53.571Z,20.80
2023-05-04T12:27:25.044Z,21.00
2023-05-04T12:32:53.941Z,20.90
2023-05-04T12:38:22.279Z,21.10
2023-05-04T12:43:50.990Z,21.00
2023-05-04T12:49:19.156Z,21.00
2023-05-04T12:54:46.791Z,21.20
2023-05-04T13:00:16.964Z,21.40
2023-05-04T13:05:47.518Z,21.70
2023-05-04T13:11:19.346Z,21.60
2023-05-04T13:16:51.167Z,21.60
2023-05-04T13:22:19.234Z,21.50
2023-05-04T13:27:47.386Z,21.80
2023-05-04T13:33:27.991Z,22.20
2023-05-04T13:38:57.370Z,22.30
2023-05-04T13:44:25.151Z,22.20
2023-05-04T13:49:53.329Z,22.60
2023-05-04T13:55:21.297Z,22.60
2023-05-04T14:00:49.169Z,22.60
2023-05-04T14:06:22.428Z,22.70
2023-05-04T14:11:54.592Z,22.90
2023-05-04T14:17:23.010Z,23.00
2023-05-04T14:22:54.338Z,23.20
2023-05-04T14:28:22.695Z,23.50
2023-05-04T14:33:50.575Z,23.30
2023-05-04T14:39:18.451Z,23.50
2023-05-04T14:44:46.709Z,23.70
2023-05-04T14:50:14.725Z,23.40
2023-05-04T14:55:42.835Z,23.30
2023-05-04T15:01:11.198Z,22.80
2023-05-04T15:06:44.117Z,22.50
2023-05-04T15:12:17.820Z,22.10
2023-05-04T15:17:50.511Z,21.80
2023-05-04T15:23:18.378Z,21.60
2023-05-04T15:28:47.262Z,21.50
2023-05-04T15:34:18.462Z,21.40
2023-05-04T15:39:46.942Z,21.30
2023-05-04T15:45:14.696Z,21.10
2023-05-04T15:50:42.599Z,21.00
2023-05-04T15:56:13.270Z,20.90
2023-05-04T16:01:41.473Z,20.80
2023-05-04T16:07:12.824Z,20.70
2023-05-04T16:12:43.362Z,20.70
2023-05-04T16:18:15.426Z,20.70
2023-05-04T16:23:46.065Z,20.70
2023-05-04T16:29:17.249Z,20.60
2023-05-04T16:34:49.458Z,20.50
2023-05-04T16:40:24.325Z,20.60
2023-05-04T16:46:00.057Z,20.80
2023-05-04T16:51:34.332Z,20.80
2023-05-04T16:57:02.693Z,20.70
2023-05-04T17:02:34.287Z,20.20
2023-05-04T17:08:12.748Z,19.90
2023-05-04T17:14:11.228Z,19.60
2023-05-04T17:19:41.323Z,19.40
2023-05-04T17:25:13.058Z,19.20
2023-05-04T17:30:47.983Z,19.00
2023-05-04T17:36:18.894Z,18.90
2023-05-04T17:42:05.662Z,18.70
2023-05-04T17:47:37.662Z,18.50
2023-05-04T17:53:18.460Z,18.30
2023-05-04T17:59:05.639Z,18.10
2023-05-04T18:04:43.653Z,17.90
2023-05-04T18:10:12.231Z,17.70
2023-05-04T18:15:55.883Z,17.50
2023-05-04T18:21:28.781Z,17.30
2023-05-04T18:27:13.664Z,17.10
2023-05-04T18:32:54.498Z,16.90
2023-05-04T18:38:27.145Z,16.70
2023-05-04T18:44:06.697Z,16.60
2023-05-04T18:49:35.103Z,16.40
2023-05-04T18:55:06.538Z,16.30
2023-05-04T19:00:34.524Z,16.10
2023-05-04T19:06:02.379Z,16.00
2023-05-04T19:11:30.668Z,15.80
2023-05-04T19:17:24.617Z,15.70
2023-05-04T19:22:59.362Z,15.50
2023-05-04T19:28:27.477Z,15.40
2023-05-04T19:33:59.032Z,15.30
2023-05-04T19:39:46.531Z,15.10
2023-05-04T19:45:37.460Z,15.00
2023-05-04T19:51:05.544Z,14.90
2023-05-04T19:56:36.794Z,14.80
2023-05-04T20:02:08.844Z,14.70
2023-05-04T20:08:05.192Z,14.50
2023-05-04T20:13:38.569Z,14.40
2023-05-04T20:19:12.793Z,14.30
2023-05-04T20:24:47.040Z,14.10
2023-05-04T20:30:15.445Z,14.00
2023-05-04T20:35:44.887Z,13.90
2023-05-04T20:41:12.830Z,13.70
2023-05-04T20:46:42.208Z,13.60
2023-05-04T20:52:10.340Z,13.60
2023-05-04T20:57:38.951Z,13.40
2023-05-04T21:03:09.876Z,13.30
2023-05-04T21:08:45.613Z,13.20
2023-05-04T21:14:15.197Z,13.10
2023-05-04T21:19:56.644Z,13.00
2023-05-04T21:25:45.367Z,12.80
2023-05-04T21:31:33.483Z,12.70
2023-05-04T21:37:05.039Z,12.60
2023-05-04T21:42:42.044Z,12.50
2023-05-04T21:48:12.884Z,12.40
2023-05-04T21:53:47.521Z,12.20
2023-05-04T21:59:16.049Z,12.10
2023-05-04T22:05:21.807Z,12.00
2023-05-04T22:32:00.596Z,11.50
2023-05-04T22:44:44.426Z,11.30
2023-05-04T22:51:05.784Z,11.20
2023-05-04T23:03:55.809Z,11.00
2023-05-04T23:10:22.351Z,10.90
2023-05-04T23:24:33.136Z,10.70
2023-05-04T23:38:11.866Z,10.50
